Time,TemperatureF,DewpointF,PressureIn,WindDirection,WindDirectionDegrees,WindSpeedMPH,WindSpeedGustMPH,Humidity,HourlyPrecipIn,Conditions,Clouds,dailyrainin,SoftwareType,DateUTC
2013-05-24 00:00:00,42.8,39.8,30.13,NW,320,0.0,0.0,89,0.00,,,0.00,LWC V1.12 B30,2013-05-24 04:00:00,
2013-05-24 00:02:00,42.8,39.8,30.13,NW,320,1.0,1.0,89,0.00,,,0.00,LWC V1.12 B30,2013-05-24 04:02:00,
2013-05-24 00:04:00,42.8,39.8,30.13,NW,320,1.0,2.0,89,0.00,,,0.00,LWC V1.12 B30,2013-05-24 04:04:00,
2013-05-24 00:08:00,42.6,39.6,30.13,NW,320,0.0,1.0,89,0.00,,,0.00,LWC V1.12 B30,2013-05-24 04:08:00,
2013-05-24 00:14:00,42.5,39.5,30.13,NW,320,0.0,1.0,89,0.00,,,0.00,LWC V1.12 B30,2013-05-24 04:14:00,
2013-05-24 00:16:00,42.5,39.5,30.13,NW,320,0.0,1.0,89,0.00,,,0.00,LWC V1.12 B30,2013-05-24 04:16:00,
2013-05-24 00:22:00,42.3,39.6,30.13,NW,320,1.0,2.0,90,0.00,,,0.00,LWC V1.12 B30,2013-05-24 04:22:00,
2013-05-24 00:28:00,42.2,39.5,30.13,NW,320,0.0,1.0,90,0.00,,,0.00,LWC V1.12 B30,2013-05-24 04:28:00,
2013-05-24 00:34:00,42.1,39.7,30.13,NW,320,0.0,0.0,91,0.00,,,0.00,LWC V1.12 B30,2013-05-24 04:34:00,
2013-05-24 00:36:00,42.1,39.7,30.13,NW,320,0.0,1.0,91,0.00,,,0.00,LWC V1.12 B30,2013-05-24 04:36:00,
2013-05-24 00:42:00,41.9,39.5,30.13,NW,320,0.0,1.0,91,0.00,,,0.00,LWC V1.12 B30,2013-05-24 04:42:00,
2013-05-24 00:48:00,41.9,39.5,30.13,NW,320,0.0,0.0,91,0.00,,,0.00,LWC V1.12 B30,2013-05-24 04:48:00,
2013-05-24 00:54:00,41.8,39.4,30.14,NW,320,0.0,0.0,91,0.00,,,0.00,LWC V1.12 B30,2013-05-24 04:54:00,
2013-05-24 01:00:00,41.6,39.5,30.14,NW,320,0.0,0.0,92,0.00,,,0.00,LWC V1.12 B30,2013-05-24 05:00:00,
2013-05-24 01:06:00,41.6,39.5,30.14,NW,320,0.0,0.0,92,0.00,,,0.00,LWC V1.12 B30,2013-05-24 05:06:00,
2013-05-24 01:12:00,41.6,39.5,30.14,NW,320,0.0,0.0,92,0.00,,,0.00,LWC V1.12 B30,2013-05-24 05:12:00,
2013-05-24 01:18:00,41.6,39.5,30.14,NW,320,0.0,1.0,92,0.00,,,0.00,LWC V1.12 B30,2013-05-24 05:18:00,
2013-05-24 01:24:00,41.6,39.5,30.14,NW,320,0.0,0.0,92,0.00,,,0.00,LWC V1.12 B30,2013-05-24 05:24:00,
2013-05-24 01:30:00,41.8,39.9,30.14,NW,320,0.0,0.0,93,0.00,,,0.00,LWC V1.12 B30,2013-05-24 05:30:00,
2013-05-24 01:36:00,42.1,40.2,30.14,NW,319,0.0,4.0,93,0.00,,,0.00,LWC V1.12 B30,2013-05-24 05:36:00,
2013-05-24 01:42:00,42.6,41.0,30.14,NW,317,0.0,5.0,94,0.00,,,0.00,LWC V1.12 B30,2013-05-24 05:42:00,
2013-05-24 01:48:00,42.8,40.9,30.15,NW,320,0.0,2.0,93,0.00,,,0.00,LWC V1.12 B30,2013-05-24 05:48:00,
2013-05-24 01:54:00,42.8,40.9,30.15,NW,320,0.0,1.0,93,0.00,,,0.00,LWC V1.12 B30,2013-05-24 05:54:00,
2013-05-24 02:00:00,42.9,41.0,30.15,NW,320,2.0,2.0,93,0.00,,,0.00,LWC V1.12 B30,2013-05-24 06:00:00,
2013-05-24 02:06:00,42.9,41.0,30.15,NW,320,1.0,2.0,93,0.00,,,0.00,LWC V1.12 B30,2013-05-24 06:06:00,
2013-05-24 02:12:00,43.1,41.2,30.15,NW,320,0.0,1.0,93,0.00,,,0.00,LWC V1.12 B30,2013-05-24 06:12:00,
2013-05-24 02:18:00,43.1,41.2,30.15,NNW,327,0.0,1.0,93,0.00,,,0.00,LWC V1.12 B30,2013-05-24 06:18:00,
2013-05-24 02:24:00,43.1,41.2,30.15,NNW,327,0.0,2.0,93,0.00,,,0.00,LWC V1.12 B30,2013-05-24 06:24:00,
2013-05-24 02:30:00,42.9,41.0,30.15,NNW,328,0.0,5.0,93,0.00,,,0.00,LWC V1.12 B30,2013-05-24 06:30:00,
2013-05-24 02:36:00,42.9,40.7,30.15,NW,319,0.0,1.0,92,0.00,,,0.00,LWC V1.12 B30,2013-05-24 06:36:00,
2013-05-24 02:42:00,42.8,40.6,30.15,NW,310,4.0,6.0,92,0.00,,,0.00,LWC V1.12 B30,2013-05-24 06:42:00,
2013-05-24 02:48:00,42.6,40.2,30.15,NW,309,1.0,2.0,91,0.00,,,0.00,LWC V1.12 B30,2013-05-24 06:48:00,
2013-05-24 02:54:00,42.6,39.9,30.15,NW,309,1.0,2.0,90,0.00,,,0.00,LWC V1.12 B30,2013-05-24 06:54:00,
2013-05-24 03:00:00,42.5,39.8,30.15,NW,309,1.0,2.0,90,0.00,,,0.00,LWC V1.12 B30,2013-05-24 07:00:00,
2013-05-24 03:06:00,42.5,39.8,30.15,NW,309,1.0,4.0,90,0.00,,,0.00,LWC V1.12 B30,2013-05-24 07:06:00,
2013-05-24 03:12:00,42.3,39.3,30.15,NW,317,2.0,4.0,89,0.00,,,0.00,LWC V1.12 B30,2013-05-24 07:12:00,
2013-05-24 03:18:00,42.3,39.3,30.15,NNW,346,1.0,2.0,89,0.00,,,0.00,LWC V1.12 B30,2013-05-24 07:18:00,
2013-05-24 03:24:00,42.5,39.5,30.16,NW,318,2.0,5.0,89,0.00,,,0.00,LWC V1.12 B30,2013-05-24 07:24:00,
2013-05-24 03:30:00,42.3,39.0,30.16,NW,324,0.0,0.0,88,0.00,,,0.00,LWC V1.12 B30,2013-05-24 07:30:00,
2013-05-24 03:36:00,42.3,39.0,30.16,NNW,337,2.0,4.0,88,0.00,,,0.00,LWC V1.12 B30,2013-05-24 07:36:00,
2013-05-24 03:42:00,42.2,38.9,30.16,NNW,331,1.0,4.0,88,0.00,,,0.00,LWC V1.12 B30,2013-05-24 07:42:00,
2013-05-24 03:48:00,42.1,38.5,30.16,NW,326,1.0,2.0,87,0.00,,,0.00,LWC V1.12 B30,2013-05-24 07:48:00,
2013-05-24 03:54:00,41.9,38.3,30.17,NW,325,1.0,2.0,87,0.00,,,0.00,LWC V1.12 B30,2013-05-24 07:54:00,
2013-05-24 04:00:00,41.8,38.2,30.17,NNW,334,1.0,6.0,87,0.00,,,0.00,LWC V1.12 B30,2013-05-24 08:00:00,
2013-05-24 04:06:00,41.6,38.0,30.17,NW,310,2.0,2.0,87,0.00,,,0.00,LWC V1.12 B30,2013-05-24 08:06:00,
2013-05-24 04:12:00,41.6,38.0,30.17,NW,321,2.0,6.0,87,0.00,,,0.00,LWC V1.12 B30,2013-05-24 08:12:00,
2013-05-24 04:18:00,41.5,37.9,30.17,NW,315,4.0,4.0,87,0.00,,,0.00,LWC V1.12 B30,2013-05-24 08:18:00,
2013-05-24 04:24:00,41.3,37.7,30.18,NNW,343,1.0,5.0,87,0.00,,,0.00,LWC V1.12 B30,2013-05-24 08:24:00,
2013-05-24 04:30:00,41.2,37.9,30.18,NNW,329,1.0,4.0,88,0.00,,,0.00,LWC V1.12 B30,2013-05-24 08:30:00,
2013-05-24 04:36:00,40.9,37.6,30.18,NW,319,0.0,4.0,88,0.00,,,0.00,LWC V1.12 B30,2013-05-24 08:36:00,
2013-05-24 04:42:00,40.8,37.5,30.19,NW,319,1.0,1.0,88,0.00,,,0.00,LWC V1.12 B30,2013-05-24 08:42:00,
2013-05-24 04:48:00,40.5,37.5,30.19,NNW,331,2.0,2.0,89,0.00,,,0.00,LWC V1.12 B30,2013-05-24 08:48:00,
2013-05-24 04:54:00,40.2,37.2,30.19,NW,325,0.0,1.0,89,0.00,,,0.00,LWC V1.12 B30,2013-05-24 08:54:00,
2013-05-24 05:00:00,40.1,37.1,30.19,NW,325,1.0,1.0,89,0.00,,,0.00,LWC V1.12 B30,2013-05-24 09:00:00,
2013-05-24 05:06:00,39.8,36.8,30.19,NW,325,0.0,4.0,89,0.00,,,0.00,LWC V1.12 B30,2013-05-24 09:06:00,
2013-05-24 05:12:00,39.6,36.9,30.20,NW,325,2.0,2.0,90,0.00,,,0.00,LWC V1.12 B30,2013-05-24 09:12:00,
2013-05-24 05:18:00,39.3,36.6,30.21,NW,325,0.0,2.0,90,0.00,,,0.00,LWC V1.12 B30,2013-05-24 09:18:00,
2013-05-24 05:24:00,39.2,36.5,30.21,NW,325,0.0,1.0,90,0.00,,,0.00,LWC V1.12 B30,2013-05-24 09:24:00,
2013-05-24 05:30:00,39.1,36.7,30.21,NW,325,0.0,2.0,91,0.00,,,0.00,LWC V1.12 B30,2013-05-24 09:30:00,
2013-05-24 05:36:00,38.9,36.5,30.21,NW,325,0.0,2.0,91,0.00,,,0.00,LWC V1.12 B30,2013-05-24 09:36:00,
2013-05-24 05:42:00,38.8,36.4,30.21,NW,325,0.0,0.0,91,0.00,,,0.00,LWC V1.12 B30,2013-05-24 09:42:00,
2013-05-24 05:48:00,38.5,36.1,30.21,NW,325,0.0,1.0,91,0.00,,,0.00,LWC V1.12 B30,2013-05-24 09:48:00,
2013-05-24 05:54:00,38.3,35.9,30.22,NW,325,1.0,2.0,91,0.00,,,0.00,LWC V1.12 B30,2013-05-24 09:54:00,
2013-05-24 06:00:00,38.2,35.8,30.22,NW,325,0.0,1.0,91,0.00,,,0.00,LWC V1.12 B30,2013-05-24 10:00:00,
2013-05-24 06:06:00,38.2,35.8,30.22,NW,325,1.0,2.0,91,0.00,,,0.00,LWC V1.12 B30,2013-05-24 10:06:00,
2013-05-24 06:12:00,38.0,35.3,30.22,NW,325,0.0,1.0,90,0.00,,,0.00,LWC V1.12 B30,2013-05-24 10:12:00,
2013-05-24 06:18:00,38.0,35.3,30.22,NW,325,0.0,0.0,90,0.00,,,0.00,LWC V1.12 B30,2013-05-24 10:18:00,
2013-05-24 06:24:00,37.9,35.0,30.23,NW,325,0.0,4.0,89,0.00,,,0.00,LWC V1.12 B30,2013-05-24 10:24:00,
2013-05-24 06:30:00,37.9,34.7,30.23,NW,325,0.0,2.0,88,0.00,,,0.00,LWC V1.12 B30,2013-05-24 10:30:00,
2013-05-24 06:36:00,38.0,34.2,30.23,NW,325,1.0,1.0,86,0.00,,,0.00,LWC V1.12 B30,2013-05-24 10:36:00,
2013-05-24 06:42:00,38.3,34.2,30.23,NW,325,0.0,1.0,85,0.00,,,0.00,LWC V1.12 B30,2013-05-24 10:42:00,
2013-05-24 06:48:00,38.6,33.6,30.24,North,350,2.0,2.0,82,0.00,,,0.00,LWC V1.12 B30,2013-05-24 10:48:00,
2013-05-24 06:54:00,38.9,33.6,30.24,North,350,0.0,1.0,81,0.00,,,0.00,LWC V1.12 B30,2013-05-24 10:54:00,
2013-05-24 07:00:00,38.9,33.3,30.24,NE,35,1.0,3.0,80,0.00,,,0.00,LWC V1.12 B30,2013-05-24 11:00:00,
2013-05-24 07:06:00,38.9,33.0,30.25,North,0,0.0,2.0,79,0.00,,,0.00,LWC V1.12 B30,2013-05-24 11:06:00,
2013-05-24 07:12:00,38.9,33.0,30.25,NNW,348,0.0,1.0,79,0.00,,,0.00,LWC V1.12 B30,2013-05-24 11:12:00,
2013-05-24 07:18:00,39.1,33.1,30.25,NNW,344,1.0,2.0,79,0.00,,,0.00,LWC V1.12 B30,2013-05-24 11:18:00,
2013-05-24 07:24:00,39.2,32.9,30.25,NNW,339,0.0,2.0,78,0.00,,,0.00,LWC V1.12 B30,2013-05-24 11:24:00,
2013-05-24 07:30:00,39.3,33.0,30.25,NNW,327,0.0,0.0,78,0.00,,,0.00,LWC V1.12 B30,2013-05-24 11:30:00,
2013-05-24 07:36:00,39.5,33.2,30.26,NNW,329,5.0,5.0,78,0.00,,,0.00,LWC V1.12 B30,2013-05-24 11:36:00,
2013-05-24 07:42:00,39.5,32.6,30.26,NW,326,4.0,5.0,76,0.00,,,0.00,LWC V1.12 B30,2013-05-24 11:42:00,
2013-05-24 07:48:00,39.5,32.2,30.26,North,350,2.0,11.0,75,0.00,,,0.00,LWC V1.12 B30,2013-05-24 11:48:00,
2013-05-24 07:54:00,39.3,32.0,30.26,NNW,329,0.0,1.0,75,0.00,,,0.00,LWC V1.12 B30,2013-05-24 11:54:00,
2013-05-24 08:00:00,39.3,32.0,30.26,NNW,342,0.0,5.0,75,0.00,,,0.00,LWC V1.12 B30,2013-05-24 12:00:00,
2013-05-24 08:06:00,39.2,31.6,30.27,NW,312,5.0,5.0,74,0.00,,,0.00,LWC V1.12 B30,2013-05-24 12:06:00,
2013-05-24 08:12:00,39.1,31.5,30.27,NNW,339,0.0,1.0,74,0.00,,,0.00,LWC V1.12 B30,2013-05-24 12:12:00,
2013-05-24 08:18:00,39.1,31.2,30.27,North,351,4.0,6.0,73,0.00,,,0.00,LWC V1.12 B30,2013-05-24 12:18:00,
2013-05-24 08:24:00,39.1,31.5,30.28,North,9,2.0,3.0,74,0.00,,,0.00,LWC V1.12 B30,2013-05-24 12:24:00,
2013-05-24 08:30:00,39.1,31.2,30.28,NNE,28,2.0,4.0,73,0.00,,,0.00,LWC V1.12 B30,2013-05-24 12:30:00,
2013-05-24 08:36:00,39.1,31.5,30.28,WNW,300,0.0,4.0,74,0.00,,,0.00,LWC V1.12 B30,2013-05-24 12:36:00,
2013-05-24 08:42:00,39.2,31.6,30.28,NNW,341,2.0,5.0,74,0.00,,,0.00,LWC V1.12 B30,2013-05-24 12:42:00,
2013-05-24 08:48:00,39.2,30.9,30.28,NW,321,2.0,7.0,72,0.00,,,0.00,LWC V1.12 B30,2013-05-24 12:48:00,
2013-05-24 08:54:00,39.2,30.6,30.29,NNW,347,1.0,4.0,71,0.00,,,0.00,LWC V1.12 B30,2013-05-24 12:54:00,
2013-05-24 09:00:00,39.2,30.6,30.29,ENE,57,1.0,3.0,71,0.00,,,0.00,LWC V1.12 B30,2013-05-24 13:00:00,
2013-05-24 09:06:00,39.6,31.0,30.29,NNW,331,4.0,6.0,71,0.00,,,0.00,LWC V1.12 B30,2013-05-24 13:06:00,
2013-05-24 09:12:00,39.8,30.8,30.30,NNW,337,0.0,5.0,70,0.00,,,0.00,LWC V1.12 B30,2013-05-24 13:12:00,
2013-05-24 09:18:00,39.8,31.2,30.30,NNW,327,0.0,2.0,71,0.00,,,0.00,LWC V1.12 B30,2013-05-24 13:18:00,
2013-05-24 09:24:00,39.8,31.2,30.30,North,355,0.0,2.0,71,0.00,,,0.00,LWC V1.12 B30,2013-05-24 13:24:00,
2013-05-24 09:30:00,40.1,31.5,30.31,NNW,343,1.0,7.0,71,0.00,,,0.00,LWC V1.12 B30,2013-05-24 13:30:00,
2013-05-24 09:36:00,40.5,31.1,30.31,NE,35,0.0,2.0,69,0.00,,,0.00,LWC V1.12 B30,2013-05-24 13:36:00,
2013-05-24 09:42:00,41.5,32.1,30.30,NE,35,1.0,1.0,69,0.00,,,0.00,LWC V1.12 B30,2013-05-24 13:42:00,
2013-05-24 09:48:00,42.8,33.0,30.31,NNE,14,1.0,3.0,68,0.00,,,0.00,LWC V1.12 B30,2013-05-24 13:48:00,
2013-05-24 09:54:00,43.1,33.3,30.31,NW,306,0.0,1.0,68,0.00,,,0.00,LWC V1.12 B30,2013-05-24 13:54:00,
2013-05-24 10:00:00,43.9,33.7,30.31,NW,317,2.0,5.0,67,0.00,,,0.00,LWC V1.12 B30,2013-05-24 14:00:00,
2013-05-24 10:06:00,43.6,32.2,30.31,North,5,2.0,5.0,64,0.00,,,0.00,LWC V1.12 B30,2013-05-24 14:06:00,
2013-05-24 10:12:00,43.6,32.2,30.31,NW,325,0.0,4.0,64,0.00,,,0.00,LWC V1.12 B30,2013-05-24 14:12:00,
2013-05-24 10:18:00,43.1,31.4,30.32,North,355,1.0,7.0,63,0.00,,,0.00,LWC V1.12 B30,2013-05-24 14:18:00,
2013-05-24 10:24:00,42.6,31.3,30.32,NNW,339,2.0,7.0,64,0.00,,,0.00,LWC V1.12 B30,2013-05-24 14:24:00,
2013-05-24 10:30:00,42.6,31.7,30.32,North,5,1.0,2.0,65,0.00,,,0.00,LWC V1.12 B30,2013-05-24 14:30:00,
2013-05-24 10:36:00,42.8,31.9,30.32,NNW,333,1.0,6.0,65,0.00,,,0.00,LWC V1.12 B30,2013-05-24 14:36:00,
2013-05-24 10:42:00,43.3,32.7,30.32,North,355,2.0,5.0,66,0.00,,,0.00,LWC V1.12 B30,2013-05-24 14:42:00,
2013-05-24 10:48:00,43.5,32.1,30.32,NNW,342,4.0,5.0,64,0.00,,,0.00,LWC V1.12 B30,2013-05-24 14:48:00,
2013-05-24 10:54:00,43.3,32.3,30.32,NNW,334,0.0,2.0,65,0.00,,,0.00,LWC V1.12 B30,2013-05-24 14:54:00,
2013-05-24 11:00:00,44.2,33.6,30.32,North,355,2.0,6.0,66,0.00,,,0.00,LWC V1.12 B30,2013-05-24 15:00:00,
2013-05-24 11:06:00,44.1,33.5,30.33,North,355,5.0,5.0,66,0.00,,,0.00,LWC V1.12 B30,2013-05-24 15:06:00,
2013-05-24 11:12:00,43.3,32.3,30.33,NNE,32,1.0,6.0,65,0.00,,,0.00,LWC V1.12 B30,2013-05-24 15:12:00,
2013-05-24 11:18:00,43.2,32.2,30.33,NNW,341,2.0,6.0,65,0.00,,,0.00,LWC V1.12 B30,2013-05-24 15:18:00,
2013-05-24 11:24:00,44.1,33.5,30.33,NW,325,2.0,7.0,66,0.00,,,0.00,LWC V1.12 B30,2013-05-24 15:24:00,
2013-05-24 11:30:00,44.6,32.8,30.33,NNW,340,4.0,6.0,63,0.00,,,0.00,LWC V1.12 B30,2013-05-24 15:30:00,
2013-05-24 11:36:00,44.8,34.1,30.33,NW,323,2.0,6.0,66,0.00,,,0.00,LWC V1.12 B30,2013-05-24 15:36:00,
2013-05-24 11:42:00,45.5,33.6,30.33,NE,43,0.0,2.0,63,0.00,,,0.00,LWC V1.12 B30,2013-05-24 15:42:00,
2013-05-24 11:48:00,45.8,33.1,30.33,NNW,333,2.0,6.0,61,0.00,,,0.00,LWC V1.12 B30,2013-05-24 15:48:00,
2013-05-24 11:54:00,45.2,33.4,30.33,NNW,346,2.0,6.0,63,0.00,,,0.00,LWC V1.12 B30,2013-05-24 15:54:00,
2013-05-24 12:00:00,44.8,33.8,30.33,North,9,1.0,1.0,65,0.00,,,0.00,LWC V1.12 B30,2013-05-24 16:00:00,
2013-05-24 12:06:00,44.8,33.8,30.33,NW,326,1.0,4.0,65,0.00,,,0.00,LWC V1.12 B30,2013-05-24 16:06:00,
2013-05-24 12:12:00,44.8,33.0,30.34,WNW,303,2.0,4.0,63,0.00,,,0.00,LWC V1.12 B30,2013-05-24 16:12:00,
2013-05-24 12:18:00,44.9,33.5,30.34,WNW,303,2.0,4.0,64,0.00,,,0.00,LWC V1.12 B30,2013-05-24 16:18:00,
2013-05-24 12:24:00,45.4,33.6,30.34,North,355,2.0,5.0,63,0.00,,,0.00,LWC V1.12 B30,2013-05-24 16:24:00,
2013-05-24 12:30:00,45.8,33.9,30.34,NW,325,2.0,5.0,63,0.00,,,0.00,LWC V1.12 B30,2013-05-24 16:30:00,
2013-05-24 12:36:00,46.5,34.2,30.34,North,350,0.0,4.0,62,0.00,,,0.00,LWC V1.12 B30,2013-05-24 16:36:00,
2013-05-24 12:42:00,47.3,33.7,30.34,NW,325,1.0,8.0,59,0.00,,,0.00,LWC V1.12 B30,2013-05-24 16:42:00,
2013-05-24 12:48:00,47.7,34.9,30.34,ENE,63,1.0,4.0,61,0.00,,,0.00,LWC V1.12 B30,2013-05-24 16:48:00,
2013-05-24 12:54:00,48.0,35.2,30.34,ENE,62,1.0,2.0,61,0.00,,,0.00,LWC V1.12 B30,2013-05-24 16:54:00,
2013-05-24 13:00:00,47.9,34.3,30.34,NW,325,4.0,7.0,59,0.00,,,0.00,LWC V1.12 B30,2013-05-24 17:00:00,
2013-05-24 13:06:00,47.0,34.3,30.34,NNW,340,4.0,7.0,61,0.00,,,0.00,LWC V1.12 B30,2013-05-24 17:06:00,
2013-05-24 13:12:00,46.5,33.8,30.35,NW,325,6.0,6.0,61,0.00,,,0.00,LWC V1.12 B30,2013-05-24 17:12:00,
2013-05-24 13:18:00,47.1,33.9,30.35,NNW,334,1.0,8.0,60,0.00,,,0.00,LWC V1.12 B30,2013-05-24 17:18:00,
2013-05-24 13:24:00,47.4,33.4,30.35,North,355,5.0,6.0,58,0.00,,,0.00,LWC V1.12 B30,2013-05-24 17:24:00,
2013-05-24 13:30:00,47.6,34.0,30.34,North,5,2.0,3.0,59,0.00,,,0.00,LWC V1.12 B30,2013-05-24 17:30:00,
2013-05-24 13:36:00,47.9,34.3,30.34,NNW,338,1.0,6.0,59,0.00,,,0.00,LWC V1.12 B30,2013-05-24 17:36:00,
2013-05-24 13:42:00,48.6,35.8,30.34,NW,309,1.0,1.0,61,0.00,,,0.00,LWC V1.12 B30,2013-05-24 17:42:00,
2013-05-24 13:48:00,49.2,34.6,30.34,NNW,336,4.0,5.0,57,0.00,,,0.00,LWC V1.12 B30,2013-05-24 17:48:00,
2013-05-24 13:54:00,48.6,34.9,30.34,NNW,340,2.0,4.0,59,0.00,,,0.00,LWC V1.12 B30,2013-05-24 17:54:00,
2013-05-24 14:00:00,48.9,34.3,30.34,NW,323,1.0,6.0,57,0.00,,,0.00,LWC V1.12 B30,2013-05-24 18:00:00,
2013-05-24 14:06:00,49.1,34.5,30.34,NNW,329,2.0,6.0,57,0.00,,,0.00,LWC V1.12 B30,2013-05-24 18:06:00,
2013-05-24 14:12:00,48.8,34.7,30.34,North,5,2.0,2.0,58,0.00,,,0.00,LWC V1.12 B30,2013-05-24 18:12:00,
2013-05-24 14:18:00,49.4,34.8,30.33,NE,37,1.0,7.0,57,0.00,,,0.00,LWC V1.12 B30,2013-05-24 18:18:00,
2013-05-24 14:24:00,49.5,34.5,30.33,NNW,335,2.0,2.0,56,0.00,,,0.00,LWC V1.12 B30,2013-05-24 18:24:00,
2013-05-24 14:30:00,49.9,33.9,30.33,NNE,23,1.0,4.0,54,0.00,,,0.00,LWC V1.12 B30,2013-05-24 18:30:00,
2013-05-24 14:36:00,49.8,33.8,30.33,NNW,332,1.0,5.0,54,0.00,,,0.00,LWC V1.12 B30,2013-05-24 18:36:00,
2013-05-24 14:42:00,50.1,34.6,30.34,NW,315,4.0,6.0,55,0.00,,,0.00,LWC V1.12 B30,2013-05-24 18:42:00,
2013-05-24 14:48:00,49.9,35.3,30.34,NNW,337,2.0,2.0,57,0.00,,,0.00,LWC V1.12 B30,2013-05-24 18:48:00,
2013-05-24 14:54:00,50.4,34.8,30.34,NE,49,5.0,5.0,55,0.00,,,0.00,LWC V1.12 B30,2013-05-24 18:54:00,
2013-05-24 15:00:00,50.5,34.9,30.34,NW,324,1.0,4.0,55,0.00,,,0.00,LWC V1.12 B30,2013-05-24 19:00:00,
2013-05-24 15:06:00,50.8,34.8,30.34,NNW,331,5.0,6.0,54,0.00,,,0.00,LWC V1.12 B30,2013-05-24 19:06:00,
2013-05-24 15:12:00,50.7,34.2,30.33,NNW,339,4.0,4.0,53,0.00,,,0.00,LWC V1.12 B30,2013-05-24 19:12:00,
2013-05-24 15:18:00,50.4,34.8,30.34,NNE,31,1.0,5.0,55,0.00,,,0.00,LWC V1.12 B30,2013-05-24 19:18:00,
2013-05-24 15:24:00,50.7,35.6,30.34,NE,44,1.0,2.0,56,0.00,,,0.00,LWC V1.12 B30,2013-05-24 19:24:00,
2013-05-24 15:30:00,51.0,34.5,30.34,NW,318,1.0,2.0,53,0.00,,,0.00,LWC V1.12 B30,2013-05-24 19:30:00,
2013-05-24 15:36:00,51.3,35.2,30.34,NW,306,5.0,6.0,54,0.00,,,0.00,LWC V1.12 B30,2013-05-24 19:36:00,
2013-05-24 15:42:00,51.4,35.3,30.34,WNW,292,0.0,4.0,54,0.00,,,0.00,LWC V1.12 B30,2013-05-24 19:42:00,
2013-05-24 15:48:00,51.4,34.4,30.34,NW,317,4.0,7.0,52,0.00,,,0.00,LWC V1.12 B30,2013-05-24 19:48:00,
2013-05-24 15:54:00,51.4,34.8,30.35,NE,38,0.0,2.0,53,0.00,,,0.00,LWC V1.12 B30,2013-05-24 19:54:00,
2013-05-24 16:00:00,51.7,35.6,30.35,WNW,298,5.0,6.0,54,0.00,,,0.00,LWC V1.12 B30,2013-05-24 20:00:00,
2013-05-24 16:06:00,51.6,34.1,30.34,North,351,1.0,6.0,51,0.00,,,0.00,LWC V1.12 B30,2013-05-24 20:06:00,
2013-05-24 16:12:00,51.3,33.8,30.34,North,355,0.0,7.0,51,0.00,,,0.00,LWC V1.12 B30,2013-05-24 20:12:00,
2013-05-24 16:18:00,51.6,35.0,30.34,North,0,4.0,4.0,53,0.00,,,0.00,LWC V1.12 B30,2013-05-24 20:18:00,
2013-05-24 16:24:00,51.7,34.6,30.34,NW,324,2.0,5.0,52,0.00,,,0.00,LWC V1.12 B30,2013-05-24 20:24:00,
2013-05-24 16:30:00,52.5,37.7,30.33,NW,319,1.0,5.0,57,0.00,,,0.00,LWC V1.12 B30,2013-05-24 20:30:00,
2013-05-24 16:36:00,52.8,34.7,30.33,NW,305,2.0,5.0,50,0.00,,,0.00,LWC V1.12 B30,2013-05-24 20:36:00,
2013-05-24 16:42:00,52.8,34.7,30.33,North,355,0.0,6.0,50,0.00,,,0.00,LWC V1.12 B30,2013-05-24 20:42:00,
2013-05-24 16:48:00,52.6,35.0,30.33,NNW,338,2.0,8.0,51,0.00,,,0.00,LWC V1.12 B30,2013-05-24 20:48:00,
2013-05-24 16:54:00,52.5,34.9,30.32,NW,313,0.0,5.0,51,0.00,,,0.00,LWC V1.12 B30,2013-05-24 20:54:00,
2013-05-24 17:00:00,52.5,34.4,30.32,NE,55,1.0,5.0,50,0.00,,,0.00,LWC V1.12 B30,2013-05-24 21:00:00,
2013-05-24 17:06:00,52.5,33.9,30.32,NNW,328,2.0,5.0,49,0.00,,,0.00,LWC V1.12 B30,2013-05-24 21:06:00,
2013-05-24 17:12:00,52.3,33.7,30.32,NW,323,2.0,7.0,49,0.00,,,0.00,LWC V1.12 B30,2013-05-24 21:12:00,
2013-05-24 17:18:00,52.2,33.6,30.32,NW,326,2.0,6.0,49,0.00,,,0.00,LWC V1.12 B30,2013-05-24 21:18:00,
2013-05-24 17:24:00,52.2,33.6,30.32,NE,40,0.0,7.0,49,0.00,,,0.00,LWC V1.12 B30,2013-05-24 21:24:00,
2013-05-24 17:30:00,52.3,33.7,30.32,NW,321,2.0,7.0,49,0.00,,,0.00,LWC V1.12 B30,2013-05-24 21:30:00,
2013-05-24 17:36:00,52.3,35.2,30.32,NW,317,2.0,4.0,52,0.00,,,0.00,LWC V1.12 B30,2013-05-24 21:36:00,
2013-05-24 17:42:00,52.8,35.2,30.32,NW,325,1.0,2.0,51,0.00,,,0.00,LWC V1.12 B30,2013-05-24 21:42:00,
2013-05-24 17:48:00,52.9,34.3,30.32,NE,37,1.0,3.0,49,0.00,,,0.00,LWC V1.12 B30,2013-05-24 21:48:00,
2013-05-24 17:54:00,52.9,34.3,30.32,NW,321,0.0,4.0,49,0.00,,,0.00,LWC V1.12 B30,2013-05-24 21:54:00,
2013-05-24 18:00:00,52.9,34.3,30.32,NNE,16,0.0,1.0,49,0.00,,,0.00,LWC V1.12 B30,2013-05-24 22:00:00,
2013-05-24 18:06:00,53.1,34.4,30.32,NW,315,1.0,4.0,49,0.00,,,0.00,LWC V1.12 B30,2013-05-24 22:06:00,
2013-05-24 18:12:00,53.2,34.0,30.32,NW,316,2.0,5.0,48,0.00,,,0.00,LWC V1.12 B30,2013-05-24 22:12:00,
2013-05-24 18:18:00,53.1,33.9,30.31,NNW,335,1.0,2.0,48,0.00,,,0.00,LWC V1.12 B30,2013-05-24 22:18:00,
2013-05-24 18:24:00,53.2,33.5,30.31,NW,323,6.0,6.0,47,0.00,,,0.00,LWC V1.12 B30,2013-05-24 22:24:00,
2013-05-24 18:30:00,53.1,32.9,30.31,NNW,338,2.0,4.0,46,0.00,,,0.00,LWC V1.12 B30,2013-05-24 22:30:00,
2013-05-24 18:36:00,52.9,33.2,30.31,NNE,21,1.0,3.0,47,0.00,,,0.00,LWC V1.12 B30,2013-05-24 22:36:00,
2013-05-24 18:42:00,52.9,33.2,30.31,NW,323,2.0,6.0,47,0.00,,,0.00,LWC V1.12 B30,2013-05-24 22:42:00,
2013-05-24 18:48:00,52.9,33.2,30.31,NE,53,0.0,4.0,47,0.00,,,0.00,LWC V1.12 B30,2013-05-24 22:48:00,
2013-05-24 18:54:00,52.8,33.7,30.31,NNE,28,1.0,2.0,48,0.00,,,0.00,LWC V1.12 B30,2013-05-24 22:54:00,
2013-05-24 19:00:00,52.8,34.7,30.30,NW,319,0.0,4.0,50,0.00,,,0.00,LWC V1.12 B30,2013-05-24 23:00:00,
2013-05-24 19:06:00,52.9,33.2,30.30,NW,315,4.0,5.0,47,0.00,,,0.00,LWC V1.12 B30,2013-05-24 23:06:00,
2013-05-24 19:12:00,52.8,34.2,30.30,NW,315,0.0,1.0,49,0.00,,,0.00,LWC V1.12 B30,2013-05-24 23:12:00,
2013-05-24 19:18:00,52.8,33.1,30.30,NNE,15,1.0,2.0,47,0.00,,,0.00,LWC V1.12 B30,2013-05-24 23:18:00,
2013-05-24 19:24:00,52.6,33.5,30.30,NE,44,0.0,1.0,48,0.00,,,0.00,LWC V1.12 B30,2013-05-24 23:24:00,
2013-05-24 19:30:00,52.6,34.0,30.30,NNW,333,1.0,2.0,49,0.00,,,0.00,LWC V1.12 B30,2013-05-24 23:30:00,
2013-05-24 19:36:00,52.5,33.9,30.29,North,0,0.0,1.0,49,0.00,,,0.00,LWC V1.12 B30,2013-05-24 23:36:00,
2013-05-24 19:42:00,52.5,33.9,30.29,North,0,0.0,0.0,49,0.00,,,0.00,LWC V1.12 B30,2013-05-24 23:42:00,
2013-05-24 19:48:00,52.5,33.9,30.29,North,0,0.0,1.0,49,0.00,,,0.00,LWC V1.12 B30,2013-05-24 23:48:00,
2013-05-24 19:54:00,52.3,33.7,30.29,North,0,0.0,0.0,49,0.00,,,0.00,LWC V1.12 B30,2013-05-24 23:54:00,
2013-05-24 20:00:00,52.2,34.1,30.29,North,0,0.0,0.0,50,0.00,,,0.00,LWC V1.12 B30,2013-05-25 00:00:00,
2013-05-24 20:06:00,52.2,34.6,30.29,North,0,0.0,1.0,51,0.00,,,0.00,LWC V1.12 B30,2013-05-25 00:06:00,
2013-05-24 20:12:00,52.0,34.4,30.29,North,0,0.0,1.0,51,0.00,,,0.00,LWC V1.12 B30,2013-05-25 00:12:00,
2013-05-24 20:18:00,51.9,35.8,30.29,North,0,0.0,0.0,54,0.00,,,0.00,LWC V1.12 B30,2013-05-25 00:18:00,
2013-05-24 20:24:00,51.6,34.6,30.30,North,0,0.0,0.0,52,0.00,,,0.00,LWC V1.12 B30,2013-05-25 00:24:00,
2013-05-24 20:30:00,51.3,35.7,30.29,North,0,0.0,0.0,55,0.00,,,0.00,LWC V1.12 B30,2013-05-25 00:30:00,
2013-05-24 20:36:00,50.8,36.1,30.29,North,0,0.0,0.0,57,0.00,,,0.00,LWC V1.12 B30,2013-05-25 00:36:00,
2013-05-24 20:42:00,50.4,35.3,30.29,North,0,0.0,0.0,56,0.00,,,0.00,LWC V1.12 B30,2013-05-25 00:42:00,
2013-05-24 20:48:00,49.9,34.8,30.28,North,0,0.0,0.0,56,0.00,,,0.00,LWC V1.12 B30,2013-05-25 00:48:00,
2013-05-24 20:54:00,49.6,34.6,30.28,North,0,0.0,0.0,56,0.00,,,0.00,LWC V1.12 B30,2013-05-25 00:54:00,
2013-05-24 21:00:00,49.4,34.8,30.28,North,0,0.0,0.0,57,0.00,,,0.00,LWC V1.12 B30,2013-05-25 01:00:00,
2013-05-24 21:06:00,48.6,35.3,30.28,North,0,0.0,0.0,60,0.00,,,0.00,LWC V1.12 B30,2013-05-25 01:06:00,
2013-05-24 21:12:00,48.3,35.5,30.28,North,0,0.0,0.0,61,0.00,,,0.00,LWC V1.12 B30,2013-05-25 01:12:00,
2013-05-24 21:18:00,47.7,35.3,30.28,North,0,0.0,0.0,62,0.00,,,0.00,LWC V1.12 B30,2013-05-25 01:18:00,
2013-05-24 21:24:00,47.1,35.6,30.28,North,0,0.0,0.0,64,0.00,,,0.00,LWC V1.12 B30,2013-05-25 01:24:00,
2013-05-24 21:30:00,46.8,36.0,30.28,North,0,0.0,0.0,66,0.00,,,0.00,LWC V1.12 B30,2013-05-25 01:30:00,
2013-05-24 21:36:00,46.4,35.7,30.28,North,0,0.0,0.0,66,0.00,,,0.00,LWC V1.12 B30,2013-05-25 01:36:00,
2013-05-24 21:42:00,46.1,35.8,30.28,North,0,0.0,0.0,67,0.00,,,0.00,LWC V1.12 B30,2013-05-25 01:42:00,
2013-05-24 21:48:00,45.7,36.1,30.28,North,0,0.0,0.0,69,0.00,,,0.00,LWC V1.12 B30,2013-05-25 01:48:00,
2013-05-24 21:54:00,45.4,36.6,30.29,North,0,0.0,0.0,71,0.00,,,0.00,LWC V1.12 B30,2013-05-25 01:54:00,
2013-05-24 22:00:00,45.1,37.0,30.29,North,0,0.0,0.0,73,0.00,,,0.00,LWC V1.12 B30,2013-05-25 02:00:00,
2013-05-24 22:06:00,44.8,37.0,30.30,North,0,0.0,0.0,74,0.00,,,0.00,LWC V1.12 B30,2013-05-25 02:06:00,
2013-05-24 22:12:00,44.5,37.1,30.30,North,0,0.0,0.0,75,0.00,,,0.00,LWC V1.12 B30,2013-05-25 02:12:00,
2013-05-24 22:18:00,44.2,37.5,30.30,North,0,0.0,0.0,77,0.00,,,0.00,LWC V1.12 B30,2013-05-25 02:18:00,
2013-05-24 22:24:00,43.9,37.2,30.30,North,0,0.0,0.0,77,0.00,,,0.00,LWC V1.12 B30,2013-05-25 02:24:00,
2013-05-24 22:30:00,43.6,37.2,30.30,North,0,0.0,0.0,78,0.00,,,0.00,LWC V1.12 B30,2013-05-25 02:30:00,
2013-05-24 22:36:00,43.3,37.2,30.31,North,0,0.0,0.0,79,0.00,,,0.00,LWC V1.12 B30,2013-05-25 02:36:00,
2013-05-24 22:42:00,43.1,37.0,30.31,North,0,0.0,0.0,79,0.00,,,0.00,LWC V1.12 B30,2013-05-25 02:42:00,
2013-05-24 22:48:00,42.8,37.1,30.31,North,0,0.0,0.0,80,0.00,,,0.00,LWC V1.12 B30,2013-05-25 02:48:00,
2013-05-24 22:54:00,42.6,37.2,30.32,North,0,0.0,0.0,81,0.00,,,0.00,LWC V1.12 B30,2013-05-25 02:54:00,
2013-05-24 23:00:00,42.3,37.2,30.32,North,0,0.0,0.0,82,0.00,,,0.00,LWC V1.12 B30,2013-05-25 03:00:00,
2013-05-24 23:06:00,42.1,37.0,30.33,North,0,0.0,0.0,82,0.00,,,0.00,LWC V1.12 B30,2013-05-25 03:06:00,
2013-05-24 23:12:00,41.8,36.7,30.33,North,0,0.0,0.0,82,0.00,,,0.00,LWC V1.12 B30,2013-05-25 03:12:00,
2013-05-24 23:18:00,41.5,36.7,30.33,North,0,0.0,0.0,83,0.00,,,0.00,LWC V1.12 B30,2013-05-25 03:18:00,
2013-05-24 23:24:00,41.3,36.8,30.32,North,0,0.0,0.0,84,0.00,,,0.00,LWC V1.12 B30,2013-05-25 03:24:00,
2013-05-24 23:30:00,41.1,36.9,30.32,North,0,0.0,0.0,85,0.00,,,0.00,LWC V1.12 B30,2013-05-25 03:30:00,
2013-05-24 23:36:00,40.8,36.6,30.32,North,0,0.0,0.0,85,0.00,,,0.00,LWC V1.12 B30,2013-05-25 03:36:00,
2013-05-24 23:42:00,40.6,36.7,30.32,North,0,0.0,0.0,86,0.00,,,0.00,LWC V1.12 B30,2013-05-25 03:42:00,
2013-05-24 23:48:00,40.5,36.9,30.33,North,0,0.0,0.0,87,0.00,,,0.00,LWC V1.12 B30,2013-05-25 03:48:00,
2013-05-24 23:54:00,40.3,36.7,30.32,North,0,0.0,0.0,87,0.00,,,0.00,LWC V1.12 B30,2013-05-25 03:54:00,